Time;durP1;ratioP1;P1;durP2;ratioP2;P2;SDS_P1;SDS_P2;PMS_P1;PMS_P2;Temp;Humidity;BMP_temperature;BMP_pressure;BME280_temperature;BME280_humidity;BME280_pressure;Samples;Min_cycle;Max_cycle;Signal;HPM_P1;HPM_P2
2022/12/05 07:29:28;;;;;;;15.00;8.10;;;;;;;2.21;74.89;102381.96;105579;1313;21961;-68
2022/12/05 07:31:54;;;;;;;13.40;7.90;;;;;;;2.86;70.96;102379.66;105547;1313;21964;-68
2022/12/05 07:34:19;;;;;;;17.50;9.30;;;;;;;3.27;68.83;102374.80;105525;1315;22084;-69
2022/12/05 07:36:45;;;;;;;18.00;8.70;;;;;;;3.35;67.96;102379.15;105514;1314;21989;-69
2022/12/05 07:39:11;;;;;;;24.60;9.10;;;;;;;3.42;67.70;102378.47;105296;1309;383705;-67
2022/12/05 07:41:38;;;;;;;15.60;6.50;;;;;;;3.55;67.18;102378.05;105503;1309;23716;-68
2022/12/05 07:44:04;;;;;;;14.70;6.20;;;;;;;3.54;67.05;102378.52;105601;1311;22032;-69
2022/12/05 07:46:30;;;;;;;13.00;4.80;;;;;;;3.52;66.82;102380.69;105648;1312;23056;-68
2022/12/05 07:48:55;;;;;;;8.20;3.80;;;;;;;3.60;66.70;102382.63;105688;1309;21952;-68
2022/12/05 07:51:21;;;;;;;6.70;3.60;;;;;;;3.70;66.42;102384.48;105686;1309;21957;-68
2022/12/05 07:53:47;;;;;;;7.60;4.10;;;;;;;3.67;66.28;102381.39;105636;1310;21974;-69
2022/12/05 07:56:15;;;;;;;8.50;4.10;;;;;;;3.70;66.01;102381.40;105715;1310;21980;-67
2022/12/05 07:58:47;;;;;;;7.80;3.60;;;;;;;3.73;66.05;102376.85;105825;1310;23073;-68
2022/12/05 08:01:21;;;;;;;6.70;3.60;;;;;;;3.79;65.76;102375.35;105997;1307;23039;-71
2022/12/05 08:03:47;;;;;;;6.30;3.00;;;;;;;3.80;65.48;102369.86;106100;1308;21966;-69
2022/12/05 08:06:17;;;;;;;7.40;3.20;;;;;;;3.87;65.28;102364.47;105733;1307;23633;-70
2022/12/05 08:08:44;;;;;;;8.80;3.40;;;;;;;3.95;64.86;102365.51;105775;1306;21952;-71
2022/12/05 08:11:11;;;;;;;9.50;4.10;;;;;;;3.91;64.69;102366.58;105671;1307;21961;-70
2022/12/05 08:13:39;;;;;;;11.40;4.00;;;;;;;3.90;64.63;102365.48;105580;1310;22429;-69
2022/12/05 08:16:08;;;;;;;7.50;3.90;;;;;;;3.84;64.45;102367.78;105675;1309;21961;-70
2022/12/05 08:18:34;;;;;;;9.90;4.60;;;;;;;3.81;64.66;102365.94;105622;1307;22670;-70
2022/12/05 08:21:01;;;;;;;6.30;3.10;;;;;;;3.79;64.67;102362.70;105670;1308;23814;-70
2022/12/05 08:23:29;;;;;;;5.70;3.00;;;;;;;3.85;64.64;102362.61;105830;1307;21966;-69
2022/12/05 08:25:55;;;;;;;6.70;3.00;;;;;;;3.90;64.28;102360.10;105705;1307;21958;-70
2022/12/05 08:28:21;;;;;;;7.00;3.90;;;;;;;4.31;63.14;102355.88;105675;1308;21954;-69
2022/12/05 08:30:47;;;;;;;8.30;4.10;;;;;;;4.47;62.51;102349.96;105907;1310;23626;-70
2022/12/05 08:33:12;;;;;;;9.20;3.90;;;;;;;4.19;62.74;102350.80;105728;1308;21959;-69
2022/12/05 08:35:38;;;;;;;13.10;5.40;;;;;;;4.13;62.91;102348.13;105689;1308;21948;-70
2022/12/05 08:38:04;;;;;;;5.30;2.50;;;;;;;4.46;62.10;102344.88;105744;1307;23808;-70
2022/12/05 08:40:30;;;;;;;5.50;2.70;;;;;;;4.54;61.80;102342.09;106053;1308;22045;-69
2022/12/05 08:42:56;;;;;;;5.50;2.60;;;;;;;4.54;61.87;102336.90;105634;1305;22245;-69
2022/12/05 08:45:24;;;;;;;7.70;2.80;;;;;;;4.38;61.75;102337.05;105643;1307;21972;-71
2022/12/05 08:47:50;;;;;;;4.80;2.60;;;;;;;4.28;62.37;102336.28;105640;1307;21960;-70
2022/12/05 08:50:15;;;;;;;4.30;2.50;;;;;;;4.60;61.70;102339.07;105805;1308;21967;-71
2022/12/05 08:52:42;;;;;;;6.00;2.90;;;;;;;4.69;61.73;102338.25;105667;1308;21959;-69
2022/12/05 08:55:08;;;;;;;5.30;2.30;;;;;;;4.77;61.61;102338.05;105618;1308;21960;-69
2022/12/05 08:57:34;;;;;;;6.80;2.80;;;;;;;4.85;61.31;102338.39;105735;1307;21965;-71
2022/12/05 08:59:59;;;;;;;5.70;3.00;;;;;;;4.92;61.59;102332.95;105936;1307;21967;-71
2022/12/05 09:02:25;;;;;;;4.60;2.90;;;;;;;4.47;62.77;102332.21;106032;1299;21959;-71
2022/12/05 09:04:51;;;;;;;4.60;2.40;;;;;;;4.35;63.77;102332.26;105826;1306;21973;-71
2022/12/05 09:07:18;;;;;;;4.80;2.10;;;;;;;4.74;62.66;102327.98;105978;1300;21984;-71
2022/12/05 09:09:45;;;;;;;5.60;2.50;;;;;;;4.88;62.51;102322.85;105810;1307;23692;-71
2022/12/05 09:12:12;;;;;;;4.50;2.60;;;;;;;4.77;62.69;102323.26;105748;1306;21963;-72
2022/12/05 09:14:37;;;;;;;5.70;2.70;;;;;;;4.90;62.22;102320.67;105701;1306;23735;-71
2022/12/05 09:17:03;;;;;;;6.10;2.30;;;;;;;4.44;63.41;102319.41;105742;1307;21960;-68
2022/12/05 09:19:29;;;;;;;11.20;3.10;;;;;;;4.40;63.67;102319.94;105727;1306;21956;-68
2022/12/05 09:21:55;;;;;;;5.30;2.90;;;;;;;4.85;62.56;102319.06;105667;1312;23722;-70
2022/12/05 09:24:21;;;;;;;6.50;2.80;;;;;;;4.59;63.17;102319.19;105646;1308;21959;-70
2022/12/05 09:26:47;;;;;;;5.60;2.70;;;;;;;5.09;62.25;102314.84;105695;1308;21965;-69
2022/12/05 09:29:13;;;;;;;12.70;2.20;;;;;;;4.97;62.02;102313.30;105709;1310;23204;-70
2022/12/05 09:31:41;;;;;;;7.20;2.30;;;;;;;4.75;62.86;102307.02;105672;1308;21987;-70
2022/12/05 09:34:08;;;;;;;6.90;2.40;;;;;;;5.17;62.01;102307.16;105633;1311;21970;-69
2022/12/05 09:36:33;;;;;;;7.30;2.40;;;;;;;5.09;61.85;102305.10;105692;1307;22025;-69
2022/12/05 09:39:01;;;;;;;6.40;3.30;;;;;;;5.48;60.78;102297.77;105869;1306;22577;-70
2022/12/05 09:42:04;;;;;;;11.20;4.40;;;;;;;4.95;62.05;102293.92;105722;1304;22005;-70
2022/12/05 09:44:54;;;;;;;18.90;7.00;;;;;;;4.69;62.90;102291.45;105696;1306;22320;-68
2022/12/05 09:47:32;;;;;;;9.90;4.00;;;;;;;4.79;62.55;102290.84;105686;1306;23764;-70
2022/12/05 09:50:18;;;;;;;13.00;3.80;;;;;;;4.76;62.43;102290.55;105781;1305;21962;-68
2022/12/05 09:53:09;;;;;;;8.40;3.50;;;;;;;5.13;61.37;102280.36;105780;1307;22007;-69
2022/12/05 09:55:48;;;;;;;12.50;3.50;;;;;;;4.73;61.87;102278.77;105663;1307;21976;-68
2022/12/05 09:58:21;;;;;;;6.20;3.50;;;;;;;4.59;62.25;102278.89;105672;1307;21970;-69
2022/12/05 10:00:48;;;;;;;5.60;3.80;;;;;;;4.55;62.12;102278.50;105658;1306;23872;-69
2022/12/05 10:03:42;;;;;;;5.40;3.40;;;;;;;4.51;62.21;102274.16;105702;1306;21957;-71
2022/12/05 10:06:12;;;;;;;4.20;2.80;;;;;;;4.48;62.04;102274.02;105696;1307;22014;-70
2022/12/05 10:09:12;;;;;;;6.10;3.80;;;;;;;4.42;62.07;102273.29;105789;1302;21970;-70
2022/12/05 10:11:42;;;;;;;5.60;2.90;;;;;;;4.47;61.76;102267.56;105658;1306;21970;-68
2022/12/05 10:14:21;;;;;;;7.70;2.50;;;;;;;4.55;61.62;102266.70;105654;1307;21968;-70
2022/12/05 10:16:50;;;;;;;4.80;2.90;;;;;;;4.56;61.46;102261.20;105639;1306;21958;-70
2022/12/05 10:19:38;;;;;;;6.10;2.70;;;;;;;4.56;61.64;102262.38;105673;1307;21969;-70
2022/12/05 10:22:14;;;;;;;5.80;2.80;;;;;;;4.53;61.67;102260.00;105689;1306;23128;-69
2022/12/05 10:24:44;;;;;;;8.30;2.90;;;;;;;4.50;61.60;102256.06;105680;1298;21960;-69
2022/12/05 10:27:19;;;;;;;5.50;2.50;;;;;;;4.67;61.35;102253.61;105678;1306;21955;-70
2022/12/05 10:30:14;;;;;;;5.20;2.70;;;;;;;5.39;59.39;102246.97;105575;1308;22748;-69
2022/12/05 10:32:42;;;;;;;6.60;2.70;;;;;;;5.03;59.80;102245.52;105713;1308;22052;-68
2022/12/05 10:35:16;;;;;;;6.40;2.60;;;;;;;4.83;60.44;102244.55;105726;1311;21970;-70
2022/12/05 10:37:48;;;;;;;7.20;2.80;;;;;;;5.50;58.87;102242.16;105677;1307;22063;-69
2022/12/05 10:40:14;;;;;;;5.90;2.80;;;;;;;5.61;58.36;102240.67;105625;1307;22031;-70
2022/12/05 10:42:39;;;;;;;4.90;2.30;;;;;;;5.66;58.15;102238.42;105658;1307;21969;-70
2022/12/05 10:45:19;;;;;;;5.20;2.40;;;;;;;5.65;58.12;102233.69;105755;1309;21967;-68
2022/12/05 10:47:45;;;;;;;8.20;2.80;;;;;;;5.65;57.69;102230.38;105599;1308;22782;-71
2022/12/05 10:50:31;;;;;;;5.80;3.30;;;;;;;5.64;57.76;102226.84;105731;1306;21954;-69
